sensor_id;sensor_type;location;lat;lon;timestamp;P1;durP1;ratioP1;P2;durP2;ratioP2
63087;SDS011;49173;43.164;27.786;2023-03-20T00:00:45;17.33;;;10.70;;
63087;SDS011;49173;43.164;27.786;2023-03-20T00:03:12;18.83;;;10.80;;
63087;SDS011;49173;43.164;27.786;2023-03-20T00:05:39;15.82;;;10.80;;
63087;SDS011;49173;43.164;27.786;2023-03-20T00:08:06;19.67;;;10.63;;
63087;SDS011;49173;43.164;27.786;2023-03-20T00:10:36;14.38;;;9.52;;
63087;SDS011;49173;43.164;27.786;2023-03-20T00:13:06;17.58;;;11.77;;
63087;SDS011;49173;43.164;27.786;2023-03-20T00:15:37;16.10;;;10.75;;
63087;SDS011;49173;43.164;27.786;2023-03-20T00:18:16;17.73;;;11.80;;
63087;SDS011;49173;43.164;27.786;2023-03-20T00:20:44;18.00;;;11.05;;
63087;SDS011;49173;43.164;27.786;2023-03-20T00:23:11;18.88;;;10.88;;
63087;SDS011;49173;43.164;27.786;2023-03-20T00:25:38;15.35;;;10.20;;
63087;SDS011;49173;43.164;27.786;2023-03-20T00:31:04;17.95;;;10.93;;
63087;SDS011;49173;43.164;27.786;2023-03-20T00:33:38;16.55;;;11.57;;
63087;SDS011;49173;43.164;27.786;2023-03-20T00:36:04;16.20;;;10.88;;
63087;SDS011;49173;43.164;27.786;2023-03-20T00:38:30;15.82;;;10.77;;
63087;SDS011;49173;43.164;27.786;2023-03-20T00:40:56;17.65;;;10.32;;
63087;SDS011;49173;43.164;27.786;2023-03-20T00:43:22;17.23;;;10.57;;
63087;SDS011;49173;43.164;27.786;2023-03-20T00:45:48;14.80;;;10.40;;
63087;SDS011;49173;43.164;27.786;2023-03-20T00:48:14;16.73;;;10.32;;
63087;SDS011;49173;43.164;27.786;2023-03-20T00:50:43;17.17;;;10.97;;
63087;SDS011;49173;43.164;27.786;2023-03-20T00:53:09;16.98;;;10.60;;
63087;SDS011;49173;43.164;27.786;2023-03-20T00:55:36;18.88;;;11.38;;
63087;SDS011;49173;43.164;27.786;2023-03-20T00:58:05;16.15;;;10.00;;
63087;SDS011;49173;43.164;27.786;2023-03-20T01:03:12;16.83;;;10.52;;
63087;SDS011;49173;43.164;27.786;2023-03-20T01:05:39;15.70;;;10.95;;
63087;SDS011;49173;43.164;27.786;2023-03-20T01:08:11;17.75;;;10.90;;
63087;SDS011;49173;43.164;27.786;2023-03-20T01:10:45;18.25;;;11.48;;
63087;SDS011;49173;43.164;27.786;2023-03-20T01:13:35;20.45;;;11.68;;
63087;SDS011;49173;43.164;27.786;2023-03-20T01:16:02;17.02;;;11.05;;
63087;SDS011;49173;43.164;27.786;2023-03-20T01:18:28;19.10;;;11.50;;
63087;SDS011;49173;43.164;27.786;2023-03-20T01:20:54;19.55;;;11.20;;
63087;SDS011;49173;43.164;27.786;2023-03-20T01:23:20;18.38;;;11.48;;
63087;SDS011;49173;43.164;27.786;2023-03-20T01:25:47;23.58;;;11.60;;
63087;SDS011;49173;43.164;27.786;2023-03-20T01:28:19;17.92;;;11.00;;
63087;SDS011;49173;43.164;27.786;2023-03-20T01:30:47;26.55;;;13.55;;
63087;SDS011;49173;43.164;27.786;2023-03-20T01:33:17;16.70;;;11.02;;
63087;SDS011;49173;43.164;27.786;2023-03-20T01:35:45;20.73;;;11.98;;
63087;SDS011;49173;43.164;27.786;2023-03-20T01:38:14;16.13;;;10.63;;
63087;SDS011;49173;43.164;27.786;2023-03-20T01:43:43;18.27;;;11.00;;
63087;SDS011;49173;43.164;27.786;2023-03-20T01:51:14;16.92;;;10.98;;
63087;SDS011;49173;43.164;27.786;2023-03-20T01:53:41;16.52;;;10.27;;
63087;SDS011;49173;43.164;27.786;2023-03-20T01:56:09;19.73;;;11.55;;
63087;SDS011;49173;43.164;27.786;2023-03-20T01:58:41;16.48;;;10.70;;
63087;SDS011;49173;43.164;27.786;2023-03-20T02:01:12;16.48;;;10.82;;
63087;SDS011;49173;43.164;27.786;2023-03-20T02:03:42;16.23;;;10.52;;
63087;SDS011;49173;43.164;27.786;2023-03-20T02:06:10;18.27;;;10.98;;
63087;SDS011;49173;43.164;27.786;2023-03-20T02:08:40;16.55;;;10.75;;
63087;SDS011;49173;43.164;27.786;2023-03-20T02:11:10;18.70;;;10.93;;
63087;SDS011;49173;43.164;27.786;2023-03-20T02:13:37;18.98;;;12.02;;
63087;SDS011;49173;43.164;27.786;2023-03-20T02:16:05;20.65;;;11.55;;
63087;SDS011;49173;43.164;27.786;2023-03-20T02:18:35;17.58;;;11.55;;
63087;SDS011;49173;43.164;27.786;2023-03-20T02:35:31;18.67;;;11.85;;
63087;SDS011;49173;43.164;27.786;2023-03-20T02:48:48;19.67;;;11.18;;
63087;SDS011;49173;43.164;27.786;2023-03-20T03:00:14;15.85;;;10.35;;
63087;SDS011;49173;43.164;27.786;2023-03-20T03:02:50;20.77;;;11.10;;
63087;SDS011;49173;43.164;27.786;2023-03-20T03:05:26;17.05;;;9.95;;
63087;SDS011;49173;43.164;27.786;2023-03-20T03:07:59;19.30;;;10.93;;
63087;SDS011;49173;43.164;27.786;2023-03-20T03:10:33;18.58;;;10.63;;
63087;SDS011;49173;43.164;27.786;2023-03-20T03:13:02;16.13;;;10.20;;
63087;SDS011;49173;43.164;27.786;2023-03-20T03:15:38;18.08;;;11.73;;
63087;SDS011;49173;43.164;27.786;2023-03-20T03:18:10;17.17;;;12.15;;
63087;SDS011;49173;43.164;27.786;2023-03-20T03:20:41;15.20;;;10.50;;
63087;SDS011;49173;43.164;27.786;2023-03-20T03:23:14;15.02;;;9.93;;
63087;SDS011;49173;43.164;27.786;2023-03-20T03:25:47;16.90;;;10.73;;
63087;SDS011;49173;43.164;27.786;2023-03-20T03:31:03;16.17;;;11.02;;
63087;SDS011;49173;43.164;27.786;2023-03-20T03:33:31;19.50;;;10.57;;
63087;SDS011;49173;43.164;27.786;2023-03-20T03:36:07;16.15;;;10.43;;
63087;SDS011;49173;43.164;27.786;2023-03-20T03:41:26;15.82;;;10.98;;
63087;SDS011;49173;43.164;27.786;2023-03-20T03:44:03;18.67;;;10.27;;
63087;SDS011;49173;43.164;27.786;2023-03-20T03:49:17;18.97;;;12.30;;
63087;SDS011;49173;43.164;27.786;2023-03-20T03:51:48;16.48;;;11.02;;
63087;SDS011;49173;43.164;27.786;2023-03-20T03:54:20;18.27;;;11.02;;
63087;SDS011;49173;43.164;27.786;2023-03-20T03:56:51;19.73;;;12.23;;
63087;SDS011;49173;43.164;27.786;2023-03-20T03:59:20;17.73;;;11.73;;
63087;SDS011;49173;43.164;27.786;2023-03-20T04:02:07;30.02;;;17.83;;
63087;SDS011;49173;43.164;27.786;2023-03-20T04:04:34;56.80;;;33.40;;
63087;SDS011;49173;43.164;27.786;2023-03-20T04:07:03;21.92;;;12.77;;
63087;SDS011;49173;43.164;27.786;2023-03-20T04:09:29;19.13;;;12.82;;
63087;SDS011;49173;43.164;27.786;2023-03-20T04:11:54;25.45;;;15.45;;
63087;SDS011;49173;43.164;27.786;2023-03-20T04:14:20;34.08;;;20.48;;
63087;SDS011;49173;43.164;27.786;2023-03-20T04:16:46;22.95;;;13.88;;
63087;SDS011;49173;43.164;27.786;2023-03-20T04:19:12;22.95;;;12.45;;
63087;SDS011;49173;43.164;27.786;2023-03-20T04:21:38;20.40;;;12.18;;
63087;SDS011;49173;43.164;27.786;2023-03-20T04:24:04;21.98;;;12.40;;
63087;SDS011;49173;43.164;27.786;2023-03-20T04:26:30;19.63;;;11.50;;
63087;SDS011;49173;43.164;27.786;2023-03-20T04:28:56;40.20;;;19.73;;
63087;SDS011;49173;43.164;27.786;2023-03-20T04:31:21;33.25;;;18.15;;
63087;SDS011;49173;43.164;27.786;2023-03-20T04:33:47;27.00;;;15.05;;
63087;SDS011;49173;43.164;27.786;2023-03-20T04:36:13;28.52;;;15.90;;
63087;SDS011;49173;43.164;27.786;2023-03-20T04:38:39;23.13;;;13.52;;
63087;SDS011;49173;43.164;27.786;2023-03-20T04:41:06;21.13;;;13.73;;
63087;SDS011;49173;43.164;27.786;2023-03-20T04:43:33;24.23;;;12.85;;
63087;SDS011;49173;43.164;27.786;2023-03-20T04:45:58;22.30;;;12.98;;
63087;SDS011;49173;43.164;27.786;2023-03-20T04:48:24;23.35;;;12.77;;
63087;SDS011;49173;43.164;27.786;2023-03-20T04:50:52;24.98;;;13.25;;
63087;SDS011;49173;43.164;27.786;2023-03-20T04:53:18;21.05;;;12.65;;
63087;SDS011;49173;43.164;27.786;2023-03-20T04:55:44;21.52;;;13.23;;
63087;SDS011;49173;43.164;27.786;2023-03-20T04:58:10;22.30;;;12.68;;
63087;SDS011;49173;43.164;27.786;2023-03-20T05:00:36;22.65;;;12.90;;
63087;SDS011;49173;43.164;27.786;2023-03-20T05:03:02;21.10;;;11.82;;
63087;SDS011;49173;43.164;27.786;2023-03-20T05:05:28;21.13;;;12.18;;
63087;SDS011;49173;43.164;27.786;2023-03-20T05:07:55;21.27;;;12.50;;
63087;SDS011;49173;43.164;27.786;2023-03-20T05:10:21;24.65;;;13.68;;
63087;SDS011;49173;43.164;27.786;2023-03-20T05:12:46;26.63;;;13.15;;
63087;SDS011;49173;43.164;27.786;2023-03-20T05:15:21;36.17;;;20.38;;
63087;SDS011;49173;43.164;27.786;2023-03-20T05:17:46;28.63;;;14.80;;
63087;SDS011;49173;43.164;27.786;2023-03-20T05:20:12;24.65;;;13.15;;
63087;SDS011;49173;43.164;27.786;2023-03-20T05:22:38;22.58;;;12.95;;
63087;SDS011;49173;43.164;27.786;2023-03-20T05:25:04;23.73;;;13.35;;
63087;SDS011;49173;43.164;27.786;2023-03-20T05:27:31;23.75;;;13.48;;
63087;SDS011;49173;43.164;27.786;2023-03-20T05:29:57;21.50;;;13.30;;
63087;SDS011;49173;43.164;27.786;2023-03-20T05:32:22;21.48;;;13.50;;
63087;SDS011;49173;43.164;27.786;2023-03-20T05:34:48;23.20;;;15.02;;
63087;SDS011;49173;43.164;27.786;2023-03-20T05:37:14;31.58;;;18.50;;
63087;SDS011;49173;43.164;27.786;2023-03-20T05:39:40;26.85;;;15.73;;
63087;SDS011;49173;43.164;27.786;2023-03-20T05:42:06;24.92;;;15.40;;
63087;SDS011;49173;43.164;27.786;2023-03-20T05:44:31;23.55;;;14.63;;
63087;SDS011;49173;43.164;27.786;2023-03-20T05:46:57;21.02;;;12.95;;
63087;SDS011;49173;43.164;27.786;2023-03-20T05:49:23;23.70;;;14.35;;
63087;SDS011;49173;43.164;27.786;2023-03-20T05:51:49;21.20;;;13.55;;
63087;SDS011;49173;43.164;27.786;2023-03-20T05:54:14;25.63;;;15.13;;
63087;SDS011;49173;43.164;27.786;2023-03-20T05:56:40;27.33;;;15.77;;
63087;SDS011;49173;43.164;27.786;2023-03-20T05:59:06;22.30;;;14.60;;
63087;SDS011;49173;43.164;27.786;2023-03-20T06:01:32;22.38;;;14.07;;
63087;SDS011;49173;43.164;27.786;2023-03-20T06:03:58;29.70;;;15.95;;
63087;SDS011;49173;43.164;27.786;2023-03-20T06:06:24;25.08;;;15.68;;
63087;SDS011;49173;43.164;27.786;2023-03-20T06:08:49;23.70;;;14.32;;
63087;SDS011;49173;43.164;27.786;2023-03-20T06:11:15;25.63;;;14.27;;
63087;SDS011;49173;43.164;27.786;2023-03-20T06:13:41;29.75;;;18.23;;
63087;SDS011;49173;43.164;27.786;2023-03-20T06:16:07;27.08;;;13.65;;
63087;SDS011;49173;43.164;27.786;2023-03-20T06:18:33;23.40;;;13.48;;
63087;SDS011;49173;43.164;27.786;2023-03-20T06:20:58;39.03;;;22.92;;
63087;SDS011;49173;43.164;27.786;2023-03-20T06:23:26;26.65;;;14.95;;
63087;SDS011;49173;43.164;27.786;2023-03-20T06:25:52;31.77;;;17.95;;
63087;SDS011;49173;43.164;27.786;2023-03-20T06:28:17;23.58;;;13.77;;
63087;SDS011;49173;43.164;27.786;2023-03-20T06:30:43;24.30;;;14.77;;
63087;SDS011;49173;43.164;27.786;2023-03-20T06:33:09;25.27;;;14.57;;
63087;SDS011;49173;43.164;27.786;2023-03-20T06:35:36;23.00;;;13.55;;
63087;SDS011;49173;43.164;27.786;2023-03-20T06:38:02;24.48;;;15.07;;
63087;SDS011;49173;43.164;27.786;2023-03-20T06:40:28;38.33;;;20.80;;
63087;SDS011;49173;43.164;27.786;2023-03-20T06:42:54;26.38;;;15.23;;
63087;SDS011;49173;43.164;27.786;2023-03-20T06:45:20;24.25;;;14.35;;
63087;SDS011;49173;43.164;27.786;2023-03-20T06:47:46;23.23;;;13.75;;
63087;SDS011;49173;43.164;27.786;2023-03-20T06:50:13;24.38;;;13.02;;
63087;SDS011;49173;43.164;27.786;2023-03-20T06:52:39;24.75;;;14.85;;
63087;SDS011;49173;43.164;27.786;2023-03-20T06:55:05;26.67;;;14.55;;
63087;SDS011;49173;43.164;27.786;2023-03-20T06:57:32;22.08;;;13.85;;
63087;SDS011;49173;43.164;27.786;2023-03-20T06:59:58;20.52;;;13.43;;
63087;SDS011;49173;43.164;27.786;2023-03-20T07:02:24;25.95;;;15.55;;
63087;SDS011;49173;43.164;27.786;2023-03-20T07:04:50;26.35;;;15.27;;
63087;SDS011;49173;43.164;27.786;2023-03-20T07:07:16;21.67;;;13.18;;
63087;SDS011;49173;43.164;27.786;2023-03-20T07:09:43;23.10;;;13.43;;
63087;SDS011;49173;43.164;27.786;2023-03-20T07:12:11;21.52;;;12.73;;
63087;SDS011;49173;43.164;27.786;2023-03-20T07:14:39;20.58;;;13.32;;
63087;SDS011;49173;43.164;27.786;2023-03-20T07:17:06;23.45;;;13.65;;
63087;SDS011;49173;43.164;27.786;2023-03-20T07:19:33;21.05;;;13.20;;
63087;SDS011;49173;43.164;27.786;2023-03-20T07:22:01;21.00;;;13.65;;
63087;SDS011;49173;43.164;27.786;2023-03-20T07:24:38;22.83;;;14.05;;
63087;SDS011;49173;43.164;27.786;2023-03-20T07:27:03;24.83;;;13.98;;
63087;SDS011;49173;43.164;27.786;2023-03-20T07:29:29;21.42;;;13.57;;
63087;SDS011;49173;43.164;27.786;2023-03-20T07:31:55;21.08;;;12.70;;
63087;SDS011;49173;43.164;27.786;2023-03-20T07:34:21;23.52;;;14.45;;
63087;SDS011;49173;43.164;27.786;2023-03-20T07:36:47;25.08;;;14.00;;
63087;SDS011;49173;43.164;27.786;2023-03-20T07:39:12;23.13;;;14.73;;
63087;SDS011;49173;43.164;27.786;2023-03-20T07:41:38;23.30;;;14.43;;
63087;SDS011;49173;43.164;27.786;2023-03-20T07:44:04;23.27;;;14.73;;
63087;SDS011;49173;43.164;27.786;2023-03-20T07:46:32;20.85;;;13.43;;
63087;SDS011;49173;43.164;27.786;2023-03-20T07:48:58;24.50;;;13.85;;
63087;SDS011;49173;43.164;27.786;2023-03-20T07:51:24;23.33;;;14.00;;
63087;SDS011;49173;43.164;27.786;2023-03-20T07:53:49;21.80;;;13.50;;
63087;SDS011;49173;43.164;27.786;2023-03-20T07:56:15;22.60;;;14.23;;
63087;SDS011;49173;43.164;27.786;2023-03-20T07:58:41;22.15;;;13.00;;
63087;SDS011;49173;43.164;27.786;2023-03-20T08:01:07;22.67;;;13.23;;
63087;SDS011;49173;43.164;27.786;2023-03-20T08:03:33;20.60;;;13.48;;
63087;SDS011;49173;43.164;27.786;2023-03-20T08:05:58;20.52;;;12.95;;
63087;SDS011;49173;43.164;27.786;2023-03-20T08:08:24;24.63;;;13.77;;
63087;SDS011;49173;43.164;27.786;2023-03-20T08:10:50;21.45;;;12.25;;
63087;SDS011;49173;43.164;27.786;2023-03-20T08:13:16;19.33;;;11.82;;
63087;SDS011;49173;43.164;27.786;2023-03-20T08:15:41;19.63;;;12.43;;
63087;SDS011;49173;43.164;27.786;2023-03-20T08:18:07;20.27;;;12.35;;
63087;SDS011;49173;43.164;27.786;2023-03-20T08:20:33;19.50;;;13.00;;
63087;SDS011;49173;43.164;27.786;2023-03-20T08:23:04;17.08;;;11.32;;
63087;SDS011;49173;43.164;27.786;2023-03-20T08:25:30;22.48;;;13.10;;
63087;SDS011;49173;43.164;27.786;2023-03-20T08:27:59;19.75;;;11.73;;
63087;SDS011;49173;43.164;27.786;2023-03-20T08:30:25;20.20;;;12.77;;
63087;SDS011;49173;43.164;27.786;2023-03-20T08:32:51;23.10;;;12.23;;
63087;SDS011;49173;43.164;27.786;2023-03-20T08:35:17;21.27;;;11.98;;
63087;SDS011;49173;43.164;27.786;2023-03-20T08:37:44;19.75;;;12.65;;
63087;SDS011;49173;43.164;27.786;2023-03-20T08:40:10;19.20;;;12.50;;
63087;SDS011;49173;43.164;27.786;2023-03-20T08:42:36;17.73;;;11.75;;
63087;SDS011;49173;43.164;27.786;2023-03-20T08:45:02;19.83;;;12.40;;
63087;SDS011;49173;43.164;27.786;2023-03-20T08:47:28;28.10;;;16.25;;
63087;SDS011;49173;43.164;27.786;2023-03-20T08:49:53;19.60;;;12.60;;
63087;SDS011;49173;43.164;27.786;2023-03-20T08:52:20;19.52;;;13.13;;
63087;SDS011;49173;43.164;27.786;2023-03-20T08:54:45;19.23;;;13.25;;
63087;SDS011;49173;43.164;27.786;2023-03-20T08:57:11;18.13;;;12.13;;
63087;SDS011;49173;43.164;27.786;2023-03-20T08:59:37;17.48;;;11.60;;
63087;SDS011;49173;43.164;27.786;2023-03-20T09:02:03;18.98;;;11.57;;
63087;SDS011;49173;43.164;27.786;2023-03-20T09:04:28;19.17;;;12.32;;
63087;SDS011;49173;43.164;27.786;2023-03-20T09:06:54;19.83;;;11.65;;
63087;SDS011;49173;43.164;27.786;2023-03-20T09:09:20;18.27;;;11.48;;
63087;SDS011;49173;43.164;27.786;2023-03-20T09:11:57;17.80;;;11.88;;
63087;SDS011;49173;43.164;27.786;2023-03-20T09:14:26;20.88;;;13.65;;
63087;SDS011;49173;43.164;27.786;2023-03-20T09:16:56;19.55;;;12.35;;
63087;SDS011;49173;43.164;27.786;2023-03-20T09:19:23;18.67;;;12.00;;
63087;SDS011;49173;43.164;27.786;2023-03-20T09:21:50;21.73;;;14.05;;
63087;SDS011;49173;43.164;27.786;2023-03-20T09:24:16;19.42;;;12.38;;
63087;SDS011;49173;43.164;27.786;2023-03-20T09:26:45;16.58;;;11.32;;
63087;SDS011;49173;43.164;27.786;2023-03-20T09:29:11;18.60;;;12.20;;
63087;SDS011;49173;43.164;27.786;2023-03-20T09:31:41;19.33;;;12.38;;
63087;SDS011;49173;43.164;27.786;2023-03-20T09:34:07;17.13;;;11.27;;
63087;SDS011;49173;43.164;27.786;2023-03-20T09:36:33;18.38;;;11.82;;
63087;SDS011;49173;43.164;27.786;2023-03-20T09:39:02;18.85;;;13.05;;
63087;SDS011;49173;43.164;27.786;2023-03-20T09:41:29;18.88;;;12.30;;
63087;SDS011;49173;43.164;27.786;2023-03-20T09:51:57;22.30;;;13.88;;
63087;SDS011;49173;43.164;27.786;2023-03-20T09:54:26;20.40;;;12.60;;
63087;SDS011;49173;43.164;27.786;2023-03-20T09:57:01;20.98;;;13.93;;
63087;SDS011;49173;43.164;27.786;2023-03-20T09:59:41;24.23;;;14.05;;
63087;SDS011;49173;43.164;27.786;2023-03-20T10:02:15;24.30;;;15.60;;
63087;SDS011;49173;43.164;27.786;2023-03-20T10:04:50;24.30;;;14.95;;
63087;SDS011;49173;43.164;27.786;2023-03-20T10:07:19;21.25;;;14.27;;
63087;SDS011;49173;43.164;27.786;2023-03-20T10:09:47;22.95;;;14.27;;
63087;SDS011;49173;43.164;27.786;2023-03-20T10:15:27;24.55;;;14.57;;
63087;SDS011;49173;43.164;27.786;2023-03-20T10:21:04;22.73;;;13.85;;
63087;SDS011;49173;43.164;27.786;2023-03-20T10:24:21;24.63;;;14.45;;
63087;SDS011;49173;43.164;27.786;2023-03-20T10:26:30;21.50;;;13.50;;
63087;SDS011;49173;43.164;27.786;2023-03-20T10:29:01;21.65;;;14.13;;
63087;SDS011;49173;43.164;27.786;2023-03-20T10:34:23;20.60;;;13.80;;
63087;SDS011;49173;43.164;27.786;2023-03-20T10:42:43;22.80;;;13.20;;
63087;SDS011;49173;43.164;27.786;2023-03-20T10:45:18;20.98;;;12.02;;
63087;SDS011;49173;43.164;27.786;2023-03-20T10:48:27;24.02;;;12.18;;
63087;SDS011;49173;43.164;27.786;2023-03-20T10:51:01;22.05;;;12.88;;
63087;SDS011;49173;43.164;27.786;2023-03-20T10:53:33;21.77;;;11.52;;
63087;SDS011;49173;43.164;27.786;2023-03-20T10:56:09;24.98;;;14.55;;
63087;SDS011;49173;43.164;27.786;2023-03-20T10:58:40;16.95;;;11.25;;
63087;SDS011;49173;43.164;27.786;2023-03-20T11:03:36;17.95;;;10.38;;
63087;SDS011;49173;43.164;27.786;2023-03-20T11:06:28;15.98;;;9.02;;
63087;SDS011;49173;43.164;27.786;2023-03-20T11:09:06;16.42;;;8.93;;
63087;SDS011;49173;43.164;27.786;2023-03-20T11:11:47;14.57;;;8.75;;
63087;SDS011;49173;43.164;27.786;2023-03-20T11:14:20;15.95;;;9.25;;
63087;SDS011;49173;43.164;27.786;2023-03-20T11:16:48;21.95;;;9.57;;
63087;SDS011;49173;43.164;27.786;2023-03-20T11:19:21;22.98;;;9.35;;
63087;SDS011;49173;43.164;27.786;2023-03-20T11:21:52;16.80;;;8.73;;
63087;SDS011;49173;43.164;27.786;2023-03-20T11:24:34;16.27;;;8.63;;
63087;SDS011;49173;43.164;27.786;2023-03-20T11:27:22;15.95;;;8.30;;
63087;SDS011;49173;43.164;27.786;2023-03-20T11:29:53;21.52;;;8.50;;
63087;SDS011;49173;43.164;27.786;2023-03-20T11:32:28;18.23;;;8.82;;
63087;SDS011;49173;43.164;27.786;2023-03-20T11:35:29;19.90;;;9.15;;
63087;SDS011;49173;43.164;27.786;2023-03-20T11:38:13;15.88;;;7.78;;
63087;SDS011;49173;43.164;27.786;2023-03-20T11:40:41;16.30;;;7.55;;
63087;SDS011;49173;43.164;27.786;2023-03-20T11:43:15;17.02;;;7.35;;
63087;SDS011;49173;43.164;27.786;2023-03-20T11:45:50;15.27;;;7.50;;
63087;SDS011;49173;43.164;27.786;2023-03-20T11:48:25;14.98;;;6.85;;
63087;SDS011;49173;43.164;27.786;2023-03-20T11:51:26;15.90;;;7.63;;
63087;SDS011;49173;43.164;27.786;2023-03-20T11:53:55;18.33;;;7.18;;
63087;SDS011;49173;43.164;27.786;2023-03-20T11:56:33;15.50;;;6.32;;
63087;SDS011;49173;43.164;27.786;2023-03-20T11:59:12;12.20;;;6.40;;
63087;SDS011;49173;43.164;27.786;2023-03-20T12:01:43;15.63;;;6.88;;
63087;SDS011;49173;43.164;27.786;2023-03-20T12:04:20;21.45;;;6.45;;
63087;SDS011;49173;43.164;27.786;2023-03-20T12:07:18;19.95;;;6.30;;
63087;SDS011;49173;43.164;27.786;2023-03-20T12:10:00;18.03;;;6.00;;
63087;SDS011;49173;43.164;27.786;2023-03-20T12:17:59;12.35;;;6.10;;
63087;SDS011;49173;43.164;27.786;2023-03-20T12:20:31;15.45;;;6.18;;
63087;SDS011;49173;43.164;27.786;2023-03-20T12:23:12;10.32;;;5.63;;
63087;SDS011;49173;43.164;27.786;2023-03-20T12:33:57;18.20;;;5.95;;
63087;SDS011;49173;43.164;27.786;2023-03-20T12:36:31;12.77;;;6.13;;
63087;SDS011;49173;43.164;27.786;2023-03-20T12:39:01;13.25;;;5.93;;
63087;SDS011;49173;43.164;27.786;2023-03-20T12:41:34;21.73;;;5.73;;
63087;SDS011;49173;43.164;27.786;2023-03-20T12:46:46;13.40;;;5.47;;
63087;SDS011;49173;43.164;27.786;2023-03-20T12:49:52;12.93;;;6.20;;
63087;SDS011;49173;43.164;27.786;2023-03-20T12:55:24;11.00;;;5.40;;
63087;SDS011;49173;43.164;27.786;2023-03-20T13:42:52;14.27;;;6.43;;
63087;SDS011;49173;43.164;27.786;2023-03-20T13:45:39;19.73;;;6.80;;
63087;SDS011;49173;43.164;27.786;2023-03-20T13:56:57;16.98;;;6.50;;
63087;SDS011;49173;43.164;27.786;2023-03-20T14:05:25;26.75;;;6.70;;
63087;SDS011;49173;43.164;27.786;2023-03-20T14:07:55;16.27;;;7.47;;
63087;SDS011;49173;43.164;27.786;2023-03-20T14:12:49;20.83;;;6.70;;
63087;SDS011;49173;43.164;27.786;2023-03-20T14:15:33;17.33;;;6.45;;
63087;SDS011;49173;43.164;27.786;2023-03-20T14:18:02;18.52;;;6.70;;
63087;SDS011;49173;43.164;27.786;2023-03-20T14:20:38;18.70;;;6.80;;
63087;SDS011;49173;43.164;27.786;2023-03-20T14:23:06;19.42;;;7.50;;
63087;SDS011;49173;43.164;27.786;2023-03-20T14:25:43;18.58;;;7.40;;
63087;SDS011;49173;43.164;27.786;2023-03-20T14:30:40;16.33;;;7.65;;
63087;SDS011;49173;43.164;27.786;2023-03-20T14:41:18;15.80;;;7.10;;
63087;SDS011;49173;43.164;27.786;2023-03-20T14:43:55;15.07;;;6.78;;
63087;SDS011;49173;43.164;27.786;2023-03-20T14:46:48;17.67;;;7.35;;
63087;SDS011;49173;43.164;27.786;2023-03-20T14:51:48;22.48;;;7.28;;
63087;SDS011;49173;43.164;27.786;2023-03-20T14:54:23;18.60;;;7.93;;
63087;SDS011;49173;43.164;27.786;2023-03-20T14:56:52;22.52;;;8.52;;
63087;SDS011;49173;43.164;27.786;2023-03-20T15:04:28;19.48;;;7.65;;
63087;SDS011;49173;43.164;27.786;2023-03-20T15:09:45;24.08;;;7.18;;
63087;SDS011;49173;43.164;27.786;2023-03-20T15:12:16;17.77;;;7.25;;
63087;SDS011;49173;43.164;27.786;2023-03-20T15:14:50;19.02;;;7.75;;
63087;SDS011;49173;43.164;27.786;2023-03-20T15:17:24;23.15;;;7.65;;
63087;SDS011;49173;43.164;27.786;2023-03-20T15:20:01;23.80;;;7.07;;
63087;SDS011;49173;43.164;27.786;2023-03-20T15:22:31;22.02;;;7.25;;
63087;SDS011;49173;43.164;27.786;2023-03-20T15:25:00;23.00;;;7.40;;
63087;SDS011;49173;43.164;27.786;2023-03-20T15:27:33;23.20;;;7.38;;
63087;SDS011;49173;43.164;27.786;2023-03-20T15:30:00;22.13;;;8.60;;
63087;SDS011;49173;43.164;27.786;2023-03-20T15:32:27;19.23;;;7.85;;
63087;SDS011;49173;43.164;27.786;2023-03-20T15:34:54;22.05;;;7.90;;
63087;SDS011;49173;43.164;27.786;2023-03-20T15:37:23;21.48;;;7.65;;
63087;SDS011;49173;43.164;27.786;2023-03-20T15:39:57;22.27;;;10.30;;
63087;SDS011;49173;43.164;27.786;2023-03-20T15:42:25;27.67;;;9.65;;
63087;SDS011;49173;43.164;27.786;2023-03-20T15:44:53;15.13;;;6.78;;
63087;SDS011;49173;43.164;27.786;2023-03-20T15:47:22;21.98;;;10.38;;
63087;SDS011;49173;43.164;27.786;2023-03-20T15:52:42;20.88;;;11.07;;
63087;SDS011;49173;43.164;27.786;2023-03-20T15:55:18;26.00;;;8.85;;
63087;SDS011;49173;43.164;27.786;2023-03-20T15:57:49;18.27;;;7.38;;
63087;SDS011;49173;43.164;27.786;2023-03-20T16:00:19;25.83;;;8.38;;
63087;SDS011;49173;43.164;27.786;2023-03-20T16:02:47;19.85;;;7.13;;
63087;SDS011;49173;43.164;27.786;2023-03-20T16:05:15;17.30;;;6.47;;
63087;SDS011;49173;43.164;27.786;2023-03-20T16:07:44;16.33;;;5.85;;
63087;SDS011;49173;43.164;27.786;2023-03-20T16:10:18;24.73;;;6.72;;
63087;SDS011;49173;43.164;27.786;2023-03-20T16:12:53;18.48;;;6.72;;
63087;SDS011;49173;43.164;27.786;2023-03-20T16:15:21;25.17;;;6.20;;
63087;SDS011;49173;43.164;27.786;2023-03-20T16:17:55;28.55;;;6.20;;
63087;SDS011;49173;43.164;27.786;2023-03-20T16:20:24;22.58;;;6.25;;
63087;SDS011;49173;43.164;27.786;2023-03-20T16:25:22;16.77;;;5.47;;
63087;SDS011;49173;43.164;27.786;2023-03-20T16:27:49;15.77;;;6.50;;
63087;SDS011;49173;43.164;27.786;2023-03-20T16:30:24;21.73;;;6.70;;
63087;SDS011;49173;43.164;27.786;2023-03-20T16:32:59;23.17;;;6.32;;
63087;SDS011;49173;43.164;27.786;2023-03-20T16:35:36;24.98;;;9.50;;
63087;SDS011;49173;43.164;27.786;2023-03-20T16:44:06;22.95;;;6.40;;
63087;SDS011;49173;43.164;27.786;2023-03-20T16:46:39;23.83;;;5.80;;
63087;SDS011;49173;43.164;27.786;2023-03-20T16:51:57;24.50;;;6.38;;
63087;SDS011;49173;43.164;27.786;2023-03-20T16:54:28;23.95;;;5.88;;
63087;SDS011;49173;43.164;27.786;2023-03-20T16:57:00;20.05;;;6.80;;
63087;SDS011;49173;43.164;27.786;2023-03-20T16:59:35;20.05;;;6.10;;
63087;SDS011;49173;43.164;27.786;2023-03-20T17:02:10;19.70;;;6.60;;
63087;SDS011;49173;43.164;27.786;2023-03-20T17:04:47;22.55;;;7.07;;
63087;SDS011;49173;43.164;27.786;2023-03-20T17:07:16;21.20;;;6.43;;
63087;SDS011;49173;43.164;27.786;2023-03-20T17:12:43;28.95;;;7.45;;
63087;SDS011;49173;43.164;27.786;2023-03-20T17:15:20;26.83;;;8.75;;
63087;SDS011;49173;43.164;27.786;2023-03-20T17:17:49;19.42;;;6.93;;
63087;SDS011;49173;43.164;27.786;2023-03-20T17:22:56;19.08;;;6.03;;
63087;SDS011;49173;43.164;27.786;2023-03-20T17:25:24;20.75;;;6.88;;
63087;SDS011;49173;43.164;27.786;2023-03-20T17:27:50;20.92;;;7.93;;
63087;SDS011;49173;43.164;27.786;2023-03-20T17:30:19;28.55;;;7.55;;
63087;SDS011;49173;43.164;27.786;2023-03-20T17:32:49;29.00;;;7.28;;
63087;SDS011;49173;43.164;27.786;2023-03-20T17:35:18;16.25;;;7.13;;
63087;SDS011;49173;43.164;27.786;2023-03-20T17:37:45;21.83;;;7.15;;
63087;SDS011;49173;43.164;27.786;2023-03-20T17:40:15;29.10;;;10.70;;
63087;SDS011;49173;43.164;27.786;2023-03-20T17:42:44;33.50;;;9.52;;
63087;SDS011;49173;43.164;27.786;2023-03-20T17:45:11;23.75;;;9.75;;
63087;SDS011;49173;43.164;27.786;2023-03-20T17:47:41;28.52;;;7.80;;
63087;SDS011;49173;43.164;27.786;2023-03-20T17:50:18;25.02;;;8.10;;
63087;SDS011;49173;43.164;27.786;2023-03-20T17:52:49;27.50;;;8.73;;